Time;durP1;ratioP1;P1;durP2;ratioP2;P2;SDS_P1;SDS_P2;PMS_P1;PMS_P2;Temp;Humidity;BMP_temperature;BMP_pressure;BME280_temperature;BME280_humidity;BME280_pressure;Samples;Min_cycle;Max_cycle;Signal;HPM_P1;HPM_P2
2023/06/21 00:03:00;;;;;;;21.13;15.50;;;;;;;16.52;91.93;97831.69;10437849;28;20530;-49
2023/06/21 00:07:59;;;;;;;23.00;15.82;;;;;;;16.45;92.02;97827.50;10456418;28;20059;-51
2023/06/21 00:12:59;;;;;;;22.83;16.30;;;;;;;16.50;91.85;97833.47;10455952;28;20056;-49
2023/06/21 00:17:58;;;;;;;19.38;14.77;;;;;;;16.45;92.26;97829.25;10456527;28;20526;-49
2023/06/21 00:22:57;;;;;;;16.02;13.27;;;;;;;16.40;91.84;97834.59;10455691;28;20028;-51
2023/06/21 00:27:56;;;;;;;18.00;13.57;;;;;;;16.31;91.80;97834.81;10455423;28;20601;-51
2023/06/21 00:52:55;;;;;;;16.23;12.37;;;;;;;15.70;94.25;97838.72;10580383;27;20795;-55
2023/06/21 00:57:57;;;;;;;18.52;13.52;;;;;;;15.82;93.36;97835.88;10619046;27;20062;-55
2023/06/21 01:02:56;;;;;;;20.40;13.95;;;;;;;15.88;93.24;97835.75;10618800;27;20062;-55
2023/06/21 01:08:49;;;;;;;18.48;14.75;;;;;;;15.88;93.75;97836.63;10618943;27;20500;-55
2023/06/21 01:14:13;;;;;;;19.35;14.30;;;;;;;15.84;93.75;97832.34;10490894;27;20070;-55
2023/06/21 01:19:40;;;;;;;22.55;15.07;;;;;;;15.80;93.72;97829.81;10618501;27;20057;-55
2023/06/21 01:24:50;;;;;;;25.13;16.67;;;;;;;15.81;94.00;97828.91;10618251;27;20081;-55
2023/06/21 01:29:55;;;;;;;21.50;17.27;;;;;;;15.77;94.61;97829.84;10617733;27;20065;-55
2023/06/21 01:34:56;;;;;;;27.95;18.23;;;;;;;15.75;94.37;97826.41;10618567;27;20493;-55
2023/06/21 01:39:55;;;;;;;23.80;18.00;;;;;;;15.71;94.96;97835.19;10601265;27;20398;-55
2023/06/21 01:44:53;;;;;;;22.63;16.30;;;;;;;15.51;95.69;97810.31;10558811;27;20320;-55
2023/06/21 01:49:52;;;;;;;;;;;;;;;15.68;95.04;97834.38;10528047;27;20035;-55
2023/06/21 01:54:51;;;;;;;22.50;16.07;;;;;;;15.25;94.98;97769.84;10504547;27;19919;-55
2023/06/21 01:59:50;;;;;;;25.73;17.50;;;;;;;15.61;95.24;97834.53;10504215;27;20062;-55
2023/06/21 02:04:51;;;;;;;23.55;17.17;;;;;;;15.65;95.37;97847.50;10503840;27;20844;-55
2023/06/21 02:09:50;;;;;;;22.88;17.42;;;;;;;15.63;95.12;97844.06;10504183;27;20051;-55
2023/06/21 02:14:49;;;;;;;25.15;18.00;;;;;;;15.47;95.38;97821.72;10503720;27;20070;-55
2023/06/21 02:19:48;;;;;;;27.23;17.83;;;;;;;15.67;95.03;97850.97;10503298;27;20032;-55
2023/06/21 02:24:47;;;;;;;;;;;;;;;15.63;95.09;97841.44;10503056;27;20067;-55
2023/06/21 02:29:45;;;;;;;24.23;16.97;;;;;;;15.43;94.22;97817.44;10502827;27;19911;-55
2023/06/21 02:34:44;;;;;;;;;;;;;;;15.50;94.79;97842.56;10503436;27;20130;-55
2023/06/21 02:39:43;;;;;;;27.73;17.03;;;;;;;15.48;94.94;97848.72;10503397;27;19969;-55
2023/06/21 02:44:42;;;;;;;21.60;15.45;;;;;;;15.41;95.11;97856.72;10502491;27;20078;-55
2023/06/21 02:49:41;;;;;;;20.00;14.15;;;;;;;15.21;95.07;97843.13;10501895;27;20262;-55
2023/06/21 02:54:40;;;;;;;;;;;;;;;15.35;95.15;97869.03;10501097;27;20131;-55
2023/06/21 02:59:39;;;;;;;20.40;15.25;;;;;;;15.02;94.74;97816.47;10501694;27;19973;-55
2023/06/21 03:04:39;;;;;;;21.55;15.05;;;;;;;15.33;94.80;97871.66;10501187;27;20533;-55
2023/06/21 03:09:38;;;;;;;20.30;14.25;;;;;;;15.17;94.83;97852.75;10501007;27;20062;-55
2023/06/21 03:14:37;;;;;;;24.45;15.95;;;;;;;15.44;94.68;97882.78;10501280;27;20039;-55
2023/06/21 03:19:36;;;;;;;22.60;15.85;;;;;;;15.49;94.70;97887.94;10501050;27;20063;-55
2023/06/21 03:24:35;;;;;;;22.42;16.73;;;;;;;15.58;94.33;97886.91;10500953;27;20039;-55
2023/06/21 03:29:34;;;;;;;;;;;;;;;15.68;93.91;97881.44;10501002;28;20031;-55
2023/06/21 03:34:33;;;;;;;21.77;16.30;;;;;;;15.62;93.89;97860.66;10499990;28;19926;-55
2023/06/21 03:39:32;;;;;;;20.55;14.73;;;;;;;15.82;93.32;97885.59;10509586;27;20027;-55
2023/06/21 03:44:31;;;;;;;;;;;;;;;15.79;93.20;97878.66;10542533;27;20488;-55
2023/06/21 03:49:30;;;;;;;21.33;12.83;;;;;;;15.60;93.02;97869.41;10522921;27;19911;-55
2023/06/21 03:54:29;;;;;;;22.35;14.88;;;;;;;15.75;92.64;97891.81;10541911;27;20108;-55
2023/06/21 03:59:27;;;;;;;22.30;14.68;;;;;;;15.60;92.56;97857.22;10541510;27;20076;-55
2023/06/21 04:04:26;;;;;;;;;;;;;;;15.94;92.45;97893.19;10542005;27;20118;-55
2023/06/21 04:09:25;;;;;;;20.57;13.60;;;;;;;16.06;92.28;97890.31;10540961;27;19908;-55
2023/06/21 04:14:24;;;;;;;16.27;13.80;;;;;;;15.90;92.18;97849.66;10540883;27;20110;-55
2023/06/21 04:19:23;;;;;;;;;;;;;;;16.34;91.46;97905.44;10522541;27;20121;-55
2023/06/21 04:24:22;;;;;;;17.17;13.13;;;;;;;15.55;90.76;97749.22;10541087;27;19911;-55
2023/06/21 04:29:20;;;;;;;;;;;;;;;16.70;90.40;97905.53;10541115;27;20166;-55
2023/06/21 04:34:20;;;;;;;23.83;14.33;;;;;;;16.84;89.77;97911.34;10528314;27;19919;-55
2023/06/21 04:39:20;;;;;;;26.98;14.30;;;;;;;16.85;90.06;97912.19;10529451;28;20054;-55
2023/06/21 04:44:19;;;;;;;20.88;14.75;;;;;;;16.90;90.47;97910.31;10493760;28;20067;-55
2023/06/21 04:49:18;;;;;;;18.83;13.68;;;;;;;16.98;90.50;97899.66;10493903;28;20047;-56
2023/06/21 04:54:17;;;;;;;26.00;15.15;;;;;;;17.21;90.37;97907.81;10493251;28;20122;-55
2023/06/21 04:59:16;;;;;;;23.80;15.15;;;;;;;17.11;89.83;97859.13;10510031;27;20047;-55
2023/06/21 05:04:15;;;;;;;23.25;15.32;;;;;;;17.43;89.05;97896.78;10515308;27;20051;-55
2023/06/21 05:09:14;;;;;;;22.13;13.85;;;;;;;17.51;89.06;97892.19;10510067;28;20668;-55
2023/06/21 05:14:13;;;;;;;22.02;15.02;;;;;;;17.72;87.07;97888.97;10531755;28;20533;-56
2023/06/21 05:19:12;;;;;;;25.13;15.48;;;;;;;17.88;86.48;97891.22;10528599;28;20478;-55
2023/06/21 05:24:11;;;;;;;21.27;15.65;;;;;;;18.06;85.92;97893.31;10513177;27;20107;-55
2023/06/21 05:29:11;;;;;;;19.10;14.90;;;;;;;18.23;84.75;97889.34;10505767;27;20043;-55
2023/06/21 05:34:11;;;;;;;21.98;14.82;;;;;;;18.32;84.01;97858.38;10518155;27;20059;-55
2023/06/21 05:39:10;;;;;;;19.67;13.82;;;;;;;18.58;84.41;97890.88;10535526;27;20065;-55
2023/06/21 05:44:09;;;;;;;17.52;12.90;;;;;;;18.61;83.55;97889.00;10527163;27;20035;-55
2023/06/21 05:49:08;;;;;;;14.85;12.15;;;;;;;18.61;82.13;97881.13;10542164;27;20074;-55
2023/06/21 05:54:07;;;;;;;16.95;12.90;;;;;;;18.82;82.79;97890.13;10541929;27;20038;-55
2023/06/21 06:22:05;;;;;;;17.17;12.18;;;;;;;19.84;81.00;97866.50;10508824;27;20468;-51
2023/06/21 06:27:04;;;;;;;14.05;11.02;;;;;;;20.36;78.14;97853.16;10514672;28;20059;-50
2023/06/21 06:32:03;;;;;;;11.73;9.93;;;;;;;20.80;75.82;97862.88;10505207;28;20067;-51
2023/06/21 06:37:03;;;;;;;12.32;11.02;;;;;;;21.10;70.08;97852.81;10509935;27;20019;-50
2023/06/21 06:42:02;;;;;;;12.88;10.35;;;;;;;21.33;69.47;97862.44;10490352;28;20070;-51
2023/06/21 06:47:01;;;;;;;17.05;10.50;;;;;;;21.62;69.56;97857.72;10513837;28;20067;-51
2023/06/21 06:52:00;;;;;;;16.70;10.35;;;;;;;21.71;68.10;97857.28;10553730;27;20523;-49
2023/06/21 06:56:59;;;;;;;14.52;10.20;;;;;;;21.81;69.63;97858.59;10570958;27;20043;-51
2023/06/21 07:01:58;;;;;;;11.38;9.73;;;;;;;21.94;68.64;97849.19;10534360;27;20067;-52
2023/06/21 07:06:58;;;;;;;13.82;9.88;;;;;;;22.06;67.23;97833.72;10533925;27;20043;-52
2023/06/21 07:12:01;;;;;;;13.57;9.55;;;;;;;22.38;67.20;97843.66;10534018;27;20082;-52
2023/06/21 07:17:00;;;;;;;14.88;10.40;;;;;;;22.56;66.62;97844.56;10533253;27;20081;-50
2023/06/21 07:21:59;;;;;;;14.40;9.63;;;;;;;22.80;64.59;97842.53;10495694;27;20296;-51
2023/06/21 07:26:58;;;;;;;12.27;10.38;;;;;;;22.99;63.04;97834.53;10483836;28;20484;-51
2023/06/21 07:31:57;;;;;;;12.82;10.05;;;;;;;23.20;63.43;97835.25;10460385;28;20048;-52
2023/06/21 07:36:56;;;;;;;12.52;9.40;;;;;;;23.47;62.63;97829.53;10461829;28;20064;-49
2023/06/21 07:41:56;;;;;;;13.70;9.98;;;;;;;23.50;61.47;97789.63;10501444;28;20051;-52
2023/06/21 07:46:55;;;;;;;17.65;11.50;;;;;;;23.88;60.51;97829.09;10502340;27;20067;-50
2023/06/21 07:51:54;;;;;;;15.63;10.52;;;;;;;24.19;59.43;97823.03;10512099;27;20059;-50
2023/06/21 07:56:53;;;;;;;15.07;10.93;;;;;;;24.55;60.07;97829.03;10543137;27;20069;-50
2023/06/21 08:01:52;;;;;;;11.15;9.43;;;;;;;24.69;57.97;97821.97;10463507;27;20034;-51
2023/06/21 08:06:51;;;;;;;12.68;9.30;;;;;;;24.86;58.21;97821.03;10534501;27;20110;-51
2023/06/21 08:11:50;;;;;;;13.05;9.05;;;;;;;25.15;56.67;97812.31;10545415;27;20499;-49
2023/06/21 08:16:49;;;;;;;12.85;9.45;;;;;;;25.53;56.63;97802.91;10531678;27;20059;-50
2023/06/21 08:21:48;;;;;;;12.07;9.70;;;;;;;25.80;54.32;97803.97;10490912;28;20056;-52
2023/06/21 08:26:47;;;;;;;10.88;9.77;;;;;;;26.03;51.78;97803.38;10460085;28;20048;-51
2023/06/21 08:31:46;;;;;;;12.85;10.48;;;;;;;26.24;50.44;97789.72;10473868;27;20051;-50
2023/06/21 08:36:45;;;;;;;12.57;10.60;;;;;;;26.65;50.01;97788.81;10544973;27;20410;-52
2023/06/21 08:41:44;;;;;;;16.75;10.70;;;;;;;26.89;48.39;97795.22;10502622;28;20485;-50
2023/06/21 08:46:47;;;;;;;12.40;10.30;;;;;;;27.02;47.33;97794.38;10502182;28;20463;-51
2023/06/21 08:51:48;;;;;;;15.05;11.35;;;;;;;27.17;46.53;97799.53;10502356;28;20054;-50
2023/06/21 08:56:53;;;;;;;12.52;11.23;;;;;;;27.19;43.85;97797.63;10502817;28;20413;-52
2023/06/21 09:02:14;;;;;;;12.50;11.27;;;;;;;27.29;44.35;97800.50;10502325;28;20063;-51
2023/06/21 09:07:14;;;;;;;13.50;10.50;;;;;;;27.12;43.28;97716.44;10502067;28;20051;-52
2023/06/21 09:12:17;;;;;;;11.02;9.93;;;;;;;27.67;40.53;97794.38;10498972;27;20567;-51
2023/06/21 09:17:16;;;;;;;12.00;9.48;;;;;;;27.79;39.85;97797.97;10497015;28;20074;-48
2023/06/21 09:22:15;;;;;;;10.93;9.82;;;;;;;28.04;40.71;97779.28;10497933;28;20056;-51
2023/06/21 09:27:14;;;;;;;11.93;10.73;;;;;;;28.25;40.43;97757.38;10483598;28;20592;-50
2023/06/21 09:32:13;;;;;;;11.85;10.65;;;;;;;28.23;38.90;97778.81;10486222;28;20036;-50
2023/06/21 09:37:32;;;;;;;11.60;10.25;;;;;;;28.18;39.12;97772.97;10497170;28;20425;-49
2023/06/21 09:42:36;;;;;;;11.98;10.77;;;;;;;28.21;39.34;97778.09;10487764;28;20517;-52
2023/06/21 09:47:35;;;;;;;11.50;10.30;;;;;;;28.32;40.65;97787.13;10495618;28;20577;-50
2023/06/21 09:52:34;;;;;;;11.98;10.57;;;;;;;28.42;41.03;97785.50;10497563;28;20034;-51
2023/06/21 09:57:33;;;;;;;10.80;9.65;;;;;;;28.73;40.34;97776.09;10472911;28;20063;-49
2023/06/21 10:02:39;;;;;;;14.55;10.43;;;;;;;28.81;40.08;97784.38;10452766;28;20105;-52
2023/06/21 10:07:45;;;;;;;13.68;10.68;;;;;;;28.96;40.08;97787.72;10492171;28;20063;-52
2023/06/21 10:12:54;;;;;;;11.25;9.95;;;;;;;29.05;38.71;97781.69;10459828;28;20087;-51
2023/06/21 10:17:54;;;;;;;11.50;10.30;;;;;;;29.02;39.35;97789.94;10456078;28;20079;-50
2023/06/21 10:22:55;;;;;;;11.07;9.88;;;;;;;29.29;38.62;97799.50;10455966;28;20051;-51
2023/06/21 10:27:59;;;;;;;10.77;9.32;;;;;;;29.19;37.59;97793.13;10455242;28;20051;-52
2023/06/21 10:39:02;;;;;;;;;;;;;;;29.80;37.74;97787.53;10501832;28;20031;-51
2023/06/21 10:44:02;;;;;;;11.40;9.40;;;;;;;29.87;38.01;97784.28;10489463;28;19946;-49
2023/06/21 10:49:01;;;;;;;11.23;9.27;;;;;;;29.89;38.16;97784.19;10473430;28;20068;-51
2023/06/21 10:54:01;;;;;;;11.20;9.82;;;;;;;30.04;38.07;97787.44;10463599;28;20481;-51
2023/06/21 10:59:00;;;;;;;11.23;9.55;;;;;;;29.81;39.55;97792.78;10501037;27;20066;-49
2023/06/21 11:03:59;;;;;;;10.90;9.55;;;;;;;29.60;38.32;97786.44;10500704;28;20122;-51
2023/06/21 11:09:06;;;;;;;10.93;9.52;;;;;;;29.62;37.89;97785.34;10503044;28;20078;-52
2023/06/21 11:14:06;;;;;;;11.90;9.68;;;;;;;29.44;38.55;97784.97;10502439;27;20102;-51
2023/06/21 11:19:07;;;;;;;10.77;9.57;;;;;;;29.43;38.87;97785.91;10502379;28;20082;-52
2023/06/21 11:24:08;;;;;;;10.88;9.77;;;;;;;29.59;38.29;97777.56;10501979;27;20520;-53
2023/06/21 11:29:13;;;;;;;10.27;9.13;;;;;;;29.69;37.34;97772.34;10471989;27;20067;-52
2023/06/21 11:34:29;;;;;;;11.02;9.93;;;;;;;29.72;38.87;97785.50;10459932;28;20379;-53
2023/06/21 11:39:29;;;;;;;11.80;10.70;;;;;;;29.71;39.58;97776.59;10460016;28;20068;-52
2023/06/21 11:44:29;;;;;;;10.88;9.75;;;;;;;29.82;38.15;97775.75;10459231;28;20075;-51
2023/06/21 11:49:33;;;;;;;12.45;9.70;;;;;;;30.08;38.15;97757.63;10459895;28;20094;-50
2023/06/21 11:54:35;;;;;;;12.38;10.52;;;;;;;30.04;37.93;97769.56;10458972;28;20086;-52
2023/06/21 11:59:35;;;;;;;11.02;9.93;;;;;;;30.18;38.92;97763.09;10488651;28;20047;-52
2023/06/21 12:04:39;;;;;;;11.85;10.38;;;;;;;30.29;38.67;97717.56;10500923;28;20520;-49
2023/06/21 12:09:39;;;;;;;11.18;9.98;;;;;;;30.48;37.08;97759.75;10500992;28;20329;-52
2023/06/21 12:14:38;;;;;;;12.05;10.23;;;;;;;30.51;38.12;97755.97;10479096;27;20072;-50
2023/06/21 12:19:37;;;;;;;10.90;9.77;;;;;;;30.72;37.58;97759.53;10457975;28;20101;-52
2023/06/21 12:24:35;;;;;;;13.25;10.52;;;;;;;31.02;38.31;97760.66;10510535;27;20423;-49
2023/06/21 12:29:34;;;;;;;11.23;10.02;;;;;;;30.60;36.72;97770.44;10507876;27;20023;-52
2023/06/21 12:34:33;;;;;;;11.70;10.55;;;;;;;30.65;38.71;97769.06;10497920;27;20042;-50
2023/06/21 12:39:32;;;;;;;10.82;9.73;;;;;;;31.02;36.58;97752.63;10519346;27;20556;-52
2023/06/21 12:44:31;;;;;;;11.60;10.40;;;;;;;30.82;36.81;97764.13;10490431;28;20067;-51
2023/06/21 12:49:30;;;;;;;10.80;9.70;;;;;;;31.02;37.48;97766.03;10478939;28;20051;-51
2023/06/21 12:54:29;;;;;;;11.40;9.77;;;;;;;30.61;36.86;97762.28;10472900;28;20075;-52
2023/06/21 12:59:29;;;;;;;10.70;9.60;;;;;;;30.59;36.83;97758.88;10495465;28;20482;-50
2023/06/21 13:04:28;;;;;;;11.10;8.57;;;;;;;30.26;36.93;97774.03;10479332;28;20078;-50
2023/06/21 13:09:27;;;;;;;11.15;10.05;;;;;;;30.41;37.62;97768.44;10456183;28;20059;-51
2023/06/21 13:14:26;;;;;;;10.88;9.75;;;;;;;30.54;36.34;97764.63;10458260;27;20082;-52
2023/06/21 13:19:25;;;;;;;10.68;9.57;;;;;;;30.84;36.51;97757.66;10481204;27;20067;-50
2023/06/21 13:24:24;;;;;;;9.90;8.65;;;;;;;30.75;36.15;97761.16;10471534;28;20110;-49
2023/06/21 13:29:23;;;;;;;9.70;8.80;;;;;;;30.83;36.24;97760.50;10483537;28;20115;-49
2023/06/21 13:34:22;;;;;;;10.93;9.70;;;;;;;30.72;35.73;97753.34;10482225;28;20115;-52
2023/06/21 13:39:21;;;;;;;10.40;9.27;;;;;;;30.67;35.85;97752.88;10455462;28;20024;-50
2023/06/21 13:44:20;;;;;;;11.80;9.20;;;;;;;30.74;35.40;97732.63;10473819;28;20458;-49
2023/06/21 13:49:19;;;;;;;10.68;9.57;;;;;;;31.10;36.27;97752.84;10496407;28;20122;-49
2023/06/21 13:54:18;;;;;;;11.05;8.70;;;;;;;31.14;35.68;97762.28;10496231;28;20049;-49
2023/06/21 13:59:17;;;;;;;9.55;8.65;;;;;;;30.79;34.81;97748.31;10497217;28;20071;-49
2023/06/21 14:04:15;;;;;;;9.30;8.40;;;;;;;30.74;36.00;97751.41;10495342;28;20134;-50
2023/06/21 14:09:14;;;;;;;13.02;8.13;;;;;;;30.62;36.11;97755.94;10466342;28;20059;-51
2023/06/21 14:14:13;;;;;;;11.57;8.50;;;;;;;30.46;35.70;97755.50;10495668;28;20034;-49
2023/06/21 14:19:12;;;;;;;8.50;7.65;;;;;;;30.43;36.36;97758.47;10496208;28;20067;-51
2023/06/21 14:24:11;;;;;;;9.48;8.48;;;;;;;30.65;36.51;97763.72;10477012;28;20135;-49
2023/06/21 14:29:10;;;;;;;8.65;7.70;;;;;;;30.73;35.40;97757.75;10485336;28;20048;-52
2023/06/21 14:34:09;;;;;;;8.75;7.57;;;;;;;30.37;37.22;97759.75;10474223;28;20065;-51
2023/06/21 14:39:08;;;;;;;8.13;7.32;;;;;;;30.54;36.82;97761.09;10505455;28;20051;-49
2023/06/21 14:44:07;;;;;;;10.68;8.13;;;;;;;30.24;37.02;97764.44;10501958;27;20078;-51
2023/06/21 14:49:07;;;;;;;9.82;8.40;;;;;;;30.17;37.61;97761.41;10501873;28;20106;-51
2023/06/21 14:54:06;;;;;;;9.77;8.52;;;;;;;30.28;37.72;97764.06;10496191;28;20071;-51
2023/06/21 14:59:05;;;;;;;10.60;8.25;;;;;;;30.15;37.22;97760.66;10494903;28;20075;-49
2023/06/21 15:04:05;;;;;;;14.40;8.32;;;;;;;30.20;38.43;97766.50;10457165;28;20038;-50
2023/06/21 15:09:04;;;;;;;9.57;8.43;;;;;;;29.98;38.79;97755.84;10466807;28;20071;-51
2023/06/21 15:14:03;;;;;;;10.68;8.95;;;;;;;30.12;39.57;97755.56;10478050;28;20136;-49
2023/06/21 15:19:01;;;;;;;10.20;8.55;;;;;;;29.96;39.98;97749.75;10505450;28;20359;-49
2023/06/21 15:24:02;;;;;;;10.55;8.10;;;;;;;29.96;39.58;97747.09;10504393;28;20039;-51
2023/06/21 15:29:06;;;;;;;10.13;8.68;;;;;;;30.17;39.50;97753.38;10487523;28;20141;-51
2023/06/21 15:34:09;;;;;;;11.55;9.18;;;;;;;30.18;40.39;97755.06;10505349;27;20051;-51
2023/06/21 15:39:09;;;;;;;12.25;9.32;;;;;;;30.04;40.08;97752.66;10505741;27;20429;-51
2023/06/21 15:44:08;;;;;;;11.82;8.43;;;;;;;30.05;39.93;97752.53;10504955;28;20486;-49
2023/06/21 15:49:07;;;;;;;10.50;9.20;;;;;;;30.06;40.39;97753.38;10505322;27;20562;-49
2023/06/21 15:54:06;;;;;;;11.50;9.20;;;;;;;29.86;40.48;97752.28;10504626;28;20070;-52
2023/06/21 15:59:05;;;;;;;10.80;9.68;;;;;;;29.91;40.55;97753.66;10498268;28;20032;-50
2023/06/21 16:04:04;;;;;;;11.80;9.30;;;;;;;29.85;41.45;97761.31;10486193;27;20158;-52
2023/06/21 16:09:03;;;;;;;10.80;9.70;;;;;;;29.79;42.61;97749.25;10531740;27;20074;-52
2023/06/21 16:14:02;;;;;;;11.35;10.20;;;;;;;29.57;42.58;97755.44;10498507;27;20075;-52
2023/06/21 16:19:01;;;;;;;10.50;9.05;;;;;;;29.63;42.09;97754.97;10458480;28;20078;-52
2023/06/21 16:24:01;;;;;;;9.68;8.75;;;;;;;29.54;42.23;97754.84;10458856;28;20074;-51
2023/06/21 16:29:00;;;;;;;10.93;9.00;;;;;;;29.57;42.40;97759.94;10466412;27;20070;-51
2023/06/21 16:33:59;;;;;;;12.05;8.98;;;;;;;29.38;41.93;97750.69;10499860;27;20043;-51
2023/06/21 16:38:58;;;;;;;10.10;9.00;;;;;;;29.34;41.80;97764.41;10499592;27;20464;-48
2023/06/21 16:43:58;;;;;;;12.00;9.60;;;;;;;29.25;42.95;97761.47;10498125;27;20015;-51
2023/06/21 16:48:57;;;;;;;12.07;9.27;;;;;;;29.36;42.94;97774.00;10502745;27;20498;-49
2023/06/21 16:53:55;;;;;;;10.70;9.40;;;;;;;29.23;43.03;97778.59;10498598;27;20112;-49
2023/06/21 16:58:54;;;;;;;11.82;9.38;;;;;;;29.17;43.91;97777.22;10473837;28;20139;-52
2023/06/21 17:03:53;;;;;;;10.60;9.07;;;;;;;29.09;44.51;97780.47;10451853;28;20115;-50
2023/06/21 17:08:56;;;;;;;11.82;9.55;;;;;;;28.92;45.30;97788.06;10449685;28;20020;-49
2023/06/21 17:14:00;;;;;;;11.23;9.80;;;;;;;28.88;44.87;97795.47;10451097;28;20087;-52
2023/06/21 17:18:59;;;;;;;15.45;10.32;;;;;;;28.73;45.78;97801.94;10449198;28;20079;-52
2023/06/21 17:23:58;;;;;;;12.98;10.15;;;;;;;28.28;46.74;97805.19;10450347;28;20039;-50
2023/06/21 17:28:57;;;;;;;13.00;10.75;;;;;;;28.00;45.57;97808.94;10464458;28;20031;-48
2023/06/21 17:33:56;;;;;;;11.43;9.48;;;;;;;27.86;45.61;97814.41;10450248;28;20112;-52
2023/06/21 17:38:55;;;;;;;8.85;7.15;;;;;;;27.58;44.46;97827.00;10451588;28;20498;-49
2023/06/21 17:43:54;;;;;;;9.27;8.23;;;;;;;27.38;45.14;97823.03;10450120;28;20111;-51
2023/06/21 17:48:53;;;;;;;11.75;10.00;;;;;;;27.30;47.83;97839.50;10451889;28;20043;-51
2023/06/21 17:53:52;;;;;;;14.57;11.98;;;;;;;27.26;50.21;97837.16;10449301;28;20155;-52
2023/06/21 17:58:51;;;;;;;13.25;11.70;;;;;;;27.06;51.40;97846.50;10452860;28;20063;-52
2023/06/21 18:03:50;;;;;;;15.30;12.20;;;;;;;26.80;52.86;97843.72;10448424;28;20464;-50
2023/06/21 18:08:49;;;;;;;13.85;11.98;;;;;;;26.62;54.39;97840.44;10450465;28;20483;-51
2023/06/21 18:13:48;;;;;;;18.17;13.20;;;;;;;26.37;55.31;97851.84;10452404;28;20130;-51
2023/06/21 18:18:47;;;;;;;18.42;14.90;;;;;;;26.12;57.01;97868.44;10452283;28;20067;-52
2023/06/21 18:23:46;;;;;;;17.48;14.18;;;;;;;25.84;57.95;97874.63;10453388;28;20047;-52
2023/06/21 18:28:46;;;;;;;17.23;14.85;;;;;;;25.52;58.87;97880.88;10468190;28;20074;-52
2023/06/21 18:33:45;;;;;;;16.17;13.38;;;;;;;25.14;59.67;97864.56;10452849;28;20067;-52
2023/06/21 18:38:44;;;;;;;15.48;13.82;;;;;;;24.98;60.92;97885.00;10451487;28;20046;-52
2023/06/21 18:43:44;;;;;;;15.32;13.70;;;;;;;24.67;61.20;97882.25;10451108;28;20072;-51
2023/06/21 18:48:44;;;;;;;15.98;13.68;;;;;;;24.39;61.67;97885.56;10453553;28;20501;-50
2023/06/21 18:53:43;;;;;;;15.70;12.43;;;;;;;24.14;62.07;97887.81;10452567;28;20071;-51
2023/06/21 18:58:44;;;;;;;15.13;11.30;;;;;;;23.88;62.08;97892.72;10458126;28;20043;-50
2023/06/21 19:03:43;;;;;;;13.18;10.65;;;;;;;23.68;62.02;97891.13;10456883;28;20064;-50
2023/06/21 19:08:42;;;;;;;13.55;10.93;;;;;;;23.48;62.14;97892.13;10454733;28;20072;-50
2023/06/21 19:13:44;;;;;;;12.02;10.52;;;;;;;23.32;61.97;97894.66;10455821;28;20031;-52
2023/06/21 19:18:43;;;;;;;14.13;11.43;;;;;;;23.12;62.76;97893.03;10456869;28;20067;-50
2023/06/21 19:23:42;;;;;;;12.02;10.82;;;;;;;22.95;63.36;97888.59;10459924;28;20101;-49
2023/06/21 19:28:41;;;;;;;16.38;11.02;;;;;;;22.78;64.38;97894.66;10468860;28;20409;-49
2023/06/21 19:33:40;;;;;;;14.07;10.52;;;;;;;22.48;65.80;97898.75;10454824;28;20040;-51
2023/06/21 19:38:39;;;;;;;12.95;10.98;;;;;;;22.32;66.05;97906.53;10457392;28;20032;-50
2023/06/21 19:43:38;;;;;;;12.30;10.00;;;;;;;22.15;65.55;97910.78;10458373;28;20518;-48
2023/06/21 19:48:37;;;;;;;11.38;9.60;;;;;;;22.03;66.30;97911.34;10455159;28;20567;-48
2023/06/21 19:53:38;;;;;;;11.10;9.90;;;;;;;21.88;67.28;97920.81;10460269;28;20139;-50
2023/06/21 19:58:41;;;;;;;13.40;10.35;;;;;;;21.66;67.52;97923.50;10466361;28;20130;-50
2023/06/21 20:03:40;;;;;;;12.60;11.13;;;;;;;21.53;69.27;97944.31;10459325;28;20060;-51
2023/06/21 20:08:40;;;;;;;15.88;12.43;;;;;;;21.34;72.80;97953.94;10474381;28;20467;-51
2023/06/21 20:13:39;;;;;;;16.65;13.93;;;;;;;21.18;73.36;97932.53;10454019;28;20159;-51
2023/06/21 20:18:39;;;;;;;16.27;13.70;;;;;;;21.19;74.05;97949.22;10466821;28;20082;-49
2023/06/21 20:23:37;;;;;;;19.85;13.80;;;;;;;21.20;74.07;97951.81;10453398;28;20533;-51
2023/06/21 20:28:36;;;;;;;18.92;14.95;;;;;;;21.16;74.31;97959.94;10467524;28;20568;-49
2023/06/21 20:33:35;;;;;;;17.90;13.27;;;;;;;21.07;74.64;97948.81;10466619;28;20494;-51
2023/06/21 20:38:35;;;;;;;16.92;13.82;;;;;;;20.60;75.00;97876.84;10453367;28;20035;-51
2023/06/21 20:43:39;;;;;;;18.58;12.73;;;;;;;20.97;74.57;97950.09;10473004;27;20572;-51
2023/06/21 20:48:38;;;;;;;19.55;14.70;;;;;;;20.79;77.17;97961.38;10454474;28;20067;-49
2023/06/21 20:53:37;;;;;;;18.17;14.27;;;;;;;20.69;78.92;97961.72;10458948;28;20074;-52
2023/06/21 20:58:36;;;;;;;15.55;12.98;;;;;;;20.49;78.01;97948.44;10466156;28;20122;-49
2023/06/21 21:03:35;;;;;;;16.92;13.43;;;;;;;20.51;78.05;97946.63;10453368;27;20028;-51
2023/06/21 21:08:36;;;;;;;18.83;13.85;;;;;;;20.50;78.33;97961.56;10451100;28;20078;-53
2023/06/21 21:13:36;;;;;;;20.05;15.60;;;;;;;20.40;79.16;97972.50;10449435;28;20062;-53
2023/06/21 21:18:35;;;;;;;25.63;17.08;;;;;;;20.21;80.91;97973.19;10450676;28;20066;-53
2023/06/21 21:23:34;;;;;;;22.10;19.08;;;;;;;20.07;82.38;97967.53;10451857;28;20024;-53
2023/06/21 21:28:33;;;;;;;26.85;19.77;;;;;;;19.94;82.66;97966.25;10470323;28;20142;-50
2023/06/21 21:33:32;;;;;;;24.42;18.40;;;;;;;19.95;83.18;97975.88;10455550;28;20119;-49
2023/06/21 21:38:31;;;;;;;23.52;19.05;;;;;;;19.94;83.12;97985.56;10453607;28;20048;-51
2023/06/21 21:43:30;;;;;;;20.70;16.63;;;;;;;19.92;83.51;97973.34;10452855;28;20039;-51
2023/06/21 21:48:29;;;;;;;23.05;17.15;;;;;;;19.89;83.10;97978.75;10449059;28;20130;-52
2023/06/21 21:53:28;;;;;;;26.70;18.15;;;;;;;19.81;83.84;97977.25;10450357;28;20024;-51
2023/06/21 21:58:27;;;;;;;21.38;16.92;;;;;;;19.69;83.95;97967.09;10463542;28;20510;-50
2023/06/21 22:03:26;;;;;;;20.63;16.77;;;;;;;19.64;84.49;97984.84;10451419;28;20123;-51
2023/06/21 22:08:25;;;;;;;26.80;17.63;;;;;;;19.60;85.20;97970.03;10448155;28;20063;-52
2023/06/21 22:13:26;;;;;;;21.42;16.67;;;;;;;19.48;85.46;97981.81;10446066;28;20038;-50
2023/06/21 22:18:25;;;;;;;20.23;15.52;;;;;;;19.43;85.30;97981.97;10444257;28;20469;-51
2023/06/21 22:23:29;;;;;;;17.33;14.77;;;;;;;19.31;85.44;97963.97;10445100;28;20482;-50
2023/06/21 22:28:28;;;;;;;16.33;14.23;;;;;;;19.22;85.59;97964.25;10476508;28;20115;-49
2023/06/21 22:33:27;;;;;;;16.77;13.60;;;;;;;19.10;85.08;97959.41;10452184;28;20546;-51
2023/06/21 22:38:26;;;;;;;18.13;14.23;;;;;;;19.02;84.54;97955.25;10448148;28;20485;-51
2023/06/21 22:43:25;;;;;;;18.08;13.68;;;;;;;18.95;84.81;97963.38;10448230;28;20412;-51
2023/06/21 22:48:24;;;;;;;17.42;15.52;;;;;;;18.91;85.54;97972.28;10447543;28;20143;-48
2023/06/21 22:53:23;;;;;;;23.85;16.80;;;;;;;18.79;87.87;97984.03;10455660;28;20032;-52
2023/06/21 22:58:22;;;;;;;18.63;16.23;;;;;;;18.66;89.34;97982.63;10468714;28;20059;-50
2023/06/21 23:03:25;;;;;;;19.20;16.42;;;;;;;18.59;88.99;97982.81;10497518;28;20102;-50
2023/06/21 23:08:24;;;;;;;21.30;17.23;;;;;;;18.57;89.54;97987.28;10496895;28;20488;-51
2023/06/21 23:13:23;;;;;;;19.63;17.40;;;;;;;18.44;89.33;97967.50;10497103;28;20465;-51
2023/06/21 23:18:30;;;;;;;27.00;19.38;;;;;;;18.50;89.88;97987.47;10496660;28;20431;-51
2023/06/21 23:23:29;;;;;;;25.20;18.05;;;;;;;18.42;89.93;97992.97;10497292;28;20055;-51
2023/06/21 23:28:31;;;;;;;22.98;17.90;;;;;;;18.23;89.90;97999.66;10456719;27;20063;-52
2023/06/21 23:33:36;;;;;;;22.20;17.02;;;;;;;18.27;89.70;97999.53;10496108;28;20690;-51
2023/06/21 23:38:43;;;;;;;20.80;16.95;;;;;;;18.25;89.69;98008.34;10495758;28;20055;-48
2023/06/21 23:43:42;;;;;;;22.00;18.83;;;;;;;18.19;90.25;98010.22;10454230;28;20075;-49